Terminal Aerodrome Forecast
Issued by NWS Upton, NY

Home | Current Version | Previous Version | Text Only | Print | Product List | Glossary On
Versions: 1 2 3 4 5 6 7 8 9 10 11 12 13 14 15 16 17 18 19 20 21 22 23 24 25 26 27 28 29 30 31 32 33
000
FTUS41 KOKX 251136 CCA
TAFLGA
TAF COR
KLGA 251136Z 2512/2612 35003KT P6SM FEW100 FEW250
     FM251500 30006KT P6SM FEW060 FEW250
     FM251700 25007KT P6SM SCT080
     FM251900 23010G17KT P6SM SCT080
     FM252200 23011KT P6SM SCT060
     FM260300 28010KT P6SM SCT060
     FM260800 29006KT P6SM FEW050 FEW250=

USA.gov is the U.S. government's official web portal to all federal, state and local government web resources and services.